PAAK Airport Information

Runway Information
Runway 16 Length 4500 ft width 100 ft
Elevation 56 ft Threshold 0 ft Heading 165
Runway 34 Length 4500 ft Width 100 ft
Elevation 46 ft Threshold 0 ft Heading 345
Airport Frequencies
Airport Navaids
Airport Weather Information & NOTAM
ADDS - METARS form results

(1116 UTC 23 January 2019)
Data provider http://aviationweather.gov/metar/data/
 
METAR text: PAAK 231056Z AUTO 28007KT 10SM FEW013 SCT049 01/M01 A2884 RMK AO2 RAE03 SLP768 T00061011 FZRANO PNO $
Conditions at: PAAK (ATKA , AK, US) observed 1056 UTC 23 January 2019
Temperature: 0.6°C (33°F)
Dewpoint: -1.1°C (30°F) [RH = 88%]
Pressure (altimeter): 28.84 inches Hg (976.7 mb)
[Sea-level pressure:  976.8 mb]
Winds: from the W (280 degrees) at 8 MPH (7 knots; 3.6 m/s)
Visibility: 10 or more miles (16+ km)
Ceiling: at least 12,000 feet AGL
Clouds: few clouds at 1300 feet AGL
scattered clouds at 4900 feet AGL
Weather:
SOME DATA ABOVE MAY BE INACCURATE!!!
"$" is an indication the sensor requires maintenance